createdAt,value
2023-03-06T00:00:47.964Z,1.22
2023-03-06T00:03:21.461Z,1.18
2023-03-06T00:05:50.875Z,1.22
2023-03-06T00:08:20.429Z,1.22
2023-03-06T00:10:49.649Z,1.21
2023-03-06T00:13:20.794Z,1.20
2023-03-06T00:15:50.237Z,1.19
2023-03-06T00:18:19.788Z,1.18
2023-03-06T00:20:49.060Z,1.19
2023-03-06T00:23:18.544Z,1.21
2023-03-06T00:25:47.786Z,1.19
2023-03-06T00:28:17.954Z,1.09
2023-03-06T00:30:48.615Z,1.09
2023-03-06T00:33:18.158Z,1.13
2023-03-06T00:35:47.367Z,1.12
2023-03-06T00:38:17.012Z,1.06
2023-03-06T00:40:46.233Z,1.05
2023-03-06T00:43:15.809Z,1.09
2023-03-06T00:45:45.155Z,1.08
2023-03-06T00:48:16.170Z,1.03
2023-03-06T00:50:45.342Z,0.97
2023-03-06T00:53:14.849Z,0.97
2023-03-06T00:55:45.538Z,0.87
2023-03-06T00:58:15.094Z,0.92
2023-03-06T01:00:44.299Z,0.91
2023-03-06T01:03:13.857Z,0.88
2023-03-06T01:05:44.491Z,0.90
2023-03-06T01:08:14.069Z,0.86
2023-03-06T01:10:43.283Z,0.76
2023-03-06T01:13:12.819Z,0.65
2023-03-06T01:15:42.005Z,0.71
2023-03-06T01:18:11.550Z,0.67
2023-03-06T01:20:40.775Z,0.79
2023-03-06T01:23:11.834Z,0.62
2023-03-06T01:25:41.062Z,0.64
2023-03-06T01:28:10.533Z,0.73
2023-03-06T01:30:39.723Z,0.56
2023-03-06T01:33:09.246Z,0.62
2023-03-06T01:35:39.352Z,0.68
2023-03-06T01:38:08.932Z,0.72
2023-03-06T01:40:39.984Z,0.66
2023-03-06T01:43:13.388Z,0.64
2023-03-06T01:46:01.255Z,0.70
2023-03-06T01:48:31.029Z,0.59
2023-03-06T01:51:00.219Z,0.53
2023-03-06T01:53:29.813Z,0.61
2023-03-06T01:56:00.480Z,0.51
2023-03-06T01:58:29.959Z,0.53
2023-03-06T02:00:59.286Z,0.54
2023-03-06T02:03:28.841Z,0.51
2023-03-06T02:05:58.040Z,0.53
2023-03-06T02:08:27.586Z,0.56
2023-03-06T02:11:03.674Z,0.52
2023-03-06T02:13:33.345Z,0.50
2023-03-06T02:16:02.561Z,0.44
2023-03-06T02:18:32.123Z,0.48
2023-03-06T02:21:02.054Z,0.53
2023-03-06T02:23:33.134Z,0.62
2023-03-06T02:26:03.896Z,0.64
2023-03-06T02:28:33.522Z,0.63
2023-03-06T02:31:02.784Z,0.69
2023-03-06T02:33:32.320Z,0.64
2023-03-06T02:36:01.947Z,0.67
2023-03-06T02:38:33.329Z,0.70
2023-03-06T02:41:05.334Z,0.66
2023-03-06T02:43:38.317Z,0.70
2023-03-06T02:46:07.616Z,0.56
2023-03-06T02:48:37.173Z,0.62
2023-03-06T02:51:06.545Z,0.66
2023-03-06T02:53:36.033Z,0.66
2023-03-06T02:56:06.995Z,0.63
2023-03-06T02:58:36.552Z,0.61
2023-03-06T03:01:06.030Z,0.67
2023-03-06T03:03:35.671Z,0.62
2023-03-06T03:06:05.412Z,0.65
2023-03-06T03:08:35.451Z,0.60
2023-03-06T03:11:05.364Z,0.62
2023-03-06T03:13:37.698Z,0.60
2023-03-06T03:16:07.777Z,0.58
2023-03-06T03:18:37.441Z,0.54
2023-03-06T03:21:08.406Z,0.53
2023-03-06T03:23:37.943Z,0.54
2023-03-06T03:26:08.020Z,0.56
2023-03-06T03:28:39.144Z,0.59
2023-03-06T03:31:08.787Z,0.54
2023-03-06T03:33:38.408Z,0.57
2023-03-06T03:36:08.058Z,0.54
2023-03-06T03:38:37.630Z,0.50
2023-03-06T03:41:06.976Z,0.47
2023-03-06T03:43:36.450Z,0.47
2023-03-06T03:46:07.465Z,0.47
2023-03-06T03:48:37.039Z,0.51
2023-03-06T03:51:06.833Z,0.57
2023-03-06T03:53:36.315Z,0.59
2023-03-06T03:56:05.829Z,0.57
2023-03-06T03:58:35.374Z,0.59
2023-03-06T04:01:04.576Z,0.59
2023-03-06T04:03:35.536Z,0.61
2023-03-06T04:06:04.831Z,0.59
2023-03-06T04:08:34.438Z,0.59
2023-03-06T04:11:03.861Z,0.64
2023-03-06T04:13:33.439Z,0.67
2023-03-06T04:16:02.777Z,0.66
2023-03-06T04:18:32.399Z,0.66
2023-03-06T04:21:03.073Z,0.64
2023-03-06T04:23:32.569Z,0.65
2023-03-06T04:26:01.746Z,0.66
2023-03-06T04:28:31.340Z,0.67
2023-03-06T04:31:00.674Z,0.68
2023-03-06T04:33:30.215Z,0.63
2023-03-06T04:35:59.370Z,0.64
2023-03-06T04:38:30.418Z,0.64
2023-03-06T04:40:59.635Z,0.69
2023-03-06T04:43:29.194Z,0.69
2023-03-06T04:45:59.517Z,0.65
2023-03-06T04:48:29.110Z,0.62
2023-03-06T04:50:58.352Z,0.64
2023-03-06T04:53:27.898Z,0.63
2023-03-06T04:55:58.575Z,0.60
2023-03-06T04:58:28.152Z,0.59
2023-03-06T05:00:57.477Z,0.54
2023-03-06T05:03:27.062Z,0.50
2023-03-06T05:05:56.241Z,0.50
2023-03-06T05:08:25.744Z,0.44
2023-03-06T05:10:55.625Z,0.38
2023-03-06T05:13:26.917Z,0.29
2023-03-06T05:15:56.239Z,0.32
2023-03-06T05:18:25.882Z,0.23
2023-03-06T05:20:59.483Z,0.19
2023-03-06T05:23:29.279Z,0.23
2023-03-06T05:25:58.468Z,0.22
2023-03-06T05:28:29.794Z,0.15
2023-03-06T05:30:59.006Z,0.04
2023-03-06T05:33:28.583Z,0.05
2023-03-06T05:35:57.792Z,-0.05
2023-03-06T05:38:27.467Z,-0.04
2023-03-06T05:40:56.736Z,-0.08
2023-03-06T05:43:26.359Z,-0.17
2023-03-06T05:46:03.403Z,-0.36
2023-03-06T05:48:33.202Z,-0.28
2023-03-06T05:51:02.679Z,-0.60
2023-03-06T05:53:32.405Z,-0.64
2023-03-06T05:56:02.246Z,-0.58
2023-03-06T05:58:32.148Z,-0.70
2023-03-06T06:01:02.762Z,-0.67
2023-03-06T06:03:32.372Z,-0.69
2023-03-06T06:06:04.808Z,-0.60
2023-03-06T06:08:34.572Z,-0.59
2023-03-06T06:11:03.755Z,-0.55
2023-03-06T06:13:33.360Z,-0.57
2023-03-06T06:16:07.358Z,-0.53
2023-03-06T06:18:39.229Z,-0.51
2023-03-06T06:21:10.326Z,-0.34
2023-03-06T06:23:39.938Z,-0.37
2023-03-06T06:26:09.572Z,-0.34
2023-03-06T06:28:39.172Z,-0.27
2023-03-06T06:31:13.491Z,-0.16
2023-03-06T06:33:43.244Z,-0.24
2023-03-06T06:36:21.674Z,-0.20
2023-03-06T06:38:51.259Z,-0.07
2023-03-06T06:41:46.081Z,0.02
2023-03-06T06:44:11.453Z,0.08
2023-03-06T06:47:21.954Z,0.12
2023-03-06T06:49:33.493Z,0.10
2023-03-06T06:52:02.725Z,0.05
2023-03-06T06:54:32.311Z,-0.15
2023-03-06T06:57:01.505Z,0.08
2023-03-06T06:59:31.094Z,0.26
2023-03-06T07:02:01.780Z,0.28
2023-03-06T07:04:31.333Z,0.22
2023-03-06T07:07:01.258Z,0.48
2023-03-06T07:09:31.669Z,0.45
2023-03-06T07:12:00.850Z,0.55
2023-03-06T07:14:30.441Z,0.54
2023-03-06T07:16:59.713Z,0.65
2023-03-06T07:19:30.710Z,0.79
2023-03-06T07:22:00.598Z,0.85
2023-03-06T07:24:30.164Z,0.95
2023-03-06T07:26:59.385Z,0.89
2023-03-06T07:29:29.384Z,1.02
2023-03-06T07:31:58.690Z,1.03
2023-03-06T07:34:28.312Z,1.15
2023-03-06T07:36:58.968Z,1.28
2023-03-06T07:39:30.230Z,1.30
2023-03-06T07:41:59.993Z,1.28
2023-03-06T07:44:29.669Z,1.37
2023-03-06T07:46:58.926Z,1.46
2023-03-06T07:49:28.822Z,1.56
2023-03-06T07:51:59.556Z,1.52
2023-03-06T07:54:30.780Z,1.61
2023-03-06T07:56:59.933Z,1.78
2023-03-06T07:59:29.533Z,1.86
2023-03-06T08:01:58.756Z,1.77
2023-03-06T08:04:29.110Z,1.98
2023-03-06T08:07:01.583Z,1.93
2023-03-06T08:09:31.336Z,1.97
2023-03-06T08:12:00.434Z,2.05
2023-03-06T08:14:30.221Z,2.15
2023-03-06T08:16:59.542Z,2.24
2023-03-06T08:19:29.302Z,2.35
2023-03-06T08:21:58.541Z,2.33
2023-03-06T08:24:29.722Z,2.39
2023-03-06T08:26:58.965Z,2.57
2023-03-06T08:29:28.652Z,2.59
2023-03-06T08:31:57.855Z,2.69
2023-03-06T08:34:27.464Z,2.65
2023-03-06T08:36:56.682Z,2.66
2023-03-06T08:39:26.294Z,2.68
2023-03-06T08:41:56.992Z,2.79
2023-03-06T08:44:26.628Z,2.88
2023-03-06T08:46:55.816Z,2.88
2023-03-06T08:49:25.660Z,2.75
2023-03-06T08:51:54.984Z,2.87
2023-03-06T08:54:24.535Z,2.80
2023-03-06T08:56:54.397Z,2.96
2023-03-06T08:59:26.051Z,2.95
2023-03-06T09:01:55.375Z,3.00
2023-03-06T09:04:35.339Z,3.02
2023-03-06T09:07:04.613Z,3.14
2023-03-06T09:09:34.262Z,3.10
2023-03-06T09:12:03.510Z,3.23
2023-03-06T09:14:34.595Z,3.33
2023-03-06T09:17:03.788Z,3.39
2023-03-06T09:19:33.396Z,3.49
2023-03-06T09:22:02.588Z,3.64
2023-03-06T09:24:32.182Z,3.70
2023-03-06T09:27:02.074Z,3.72
2023-03-06T09:29:31.759Z,3.72
2023-03-06T09:32:02.508Z,3.70
2023-03-06T09:34:32.091Z,3.74
2023-03-06T09:37:03.214Z,3.74
2023-03-06T09:39:32.862Z,3.86
2023-03-06T09:42:02.164Z,3.64
2023-03-06T09:44:32.160Z,3.82
2023-03-06T09:47:05.581Z,3.93
2023-03-06T09:49:43.909Z,3.90
2023-03-06T09:52:19.577Z,3.98
2023-03-06T09:54:49.673Z,4.15
2023-03-06T09:57:20.947Z,4.24
2023-03-06T09:59:52.510Z,4.09
2023-03-06T10:02:24.567Z,4.27
2023-03-06T10:04:56.261Z,4.27
2023-03-06T10:07:26.059Z,3.91
2023-03-06T10:09:57.763Z,4.09
2023-03-06T10:12:28.652Z,3.98
2023-03-06T10:15:03.108Z,4.05
2023-03-06T10:17:35.231Z,3.95
2023-03-06T10:20:11.594Z,4.04
2023-03-06T10:22:41.347Z,4.17
2023-03-06T10:25:13.047Z,4.35
2023-03-06T10:27:44.502Z,4.47
2023-03-06T10:30:21.465Z,4.50
2023-03-06T10:32:55.216Z,4.64
2023-03-06T10:35:30.450Z,4.54
2023-03-06T10:38:01.317Z,4.56
2023-03-06T10:40:32.871Z,4.55
2023-03-06T10:43:11.326Z,4.66
2023-03-06T10:45:49.325Z,4.60
2023-03-06T10:48:21.801Z,4.73
2023-03-06T10:50:51.334Z,4.79
2023-03-06T10:53:21.652Z,4.74
2023-03-06T10:55:55.330Z,4.69
2023-03-06T10:58:25.811Z,4.84
2023-03-06T11:01:01.921Z,4.66
2023-03-06T11:03:32.778Z,4.79
2023-03-06T11:06:12.269Z,4.72
2023-03-06T11:08:42.490Z,4.92
2023-03-06T11:11:13.244Z,4.75
2023-03-06T11:13:43.308Z,4.94
2023-03-06T11:16:19.032Z,4.94
2023-03-06T11:18:59.566Z,5.07
2023-03-06T11:21:31.471Z,5.02
2023-03-06T11:24:04.281Z,4.90
2023-03-06T11:26:42.913Z,4.95
2023-03-06T11:29:38.676Z,4.94
2023-03-06T11:32:10.760Z,5.12
2023-03-06T11:34:42.130Z,5.23
2023-03-06T11:37:13.587Z,5.28
2023-03-06T11:39:43.513Z,5.40
2023-03-06T11:42:15.614Z,5.45
2023-03-06T11:44:53.516Z,5.59
2023-03-06T11:47:24.805Z,5.70
2023-03-06T11:49:56.849Z,5.74
2023-03-06T11:52:26.856Z,5.58
2023-03-06T11:54:56.751Z,5.67
2023-03-06T11:57:27.297Z,5.54
2023-03-06T12:00:17.558Z,5.61
2023-03-06T12:03:02.024Z,5.56
2023-03-06T12:05:35.890Z,5.59
2023-03-06T12:08:29.332Z,5.47
2023-03-06T12:10:59.828Z,5.45
2023-03-06T12:13:38.452Z,5.51
2023-03-06T12:16:10.240Z,5.53
2023-03-06T12:18:43.212Z,5.53
2023-03-06T12:21:15.224Z,5.57
2023-03-06T12:23:56.216Z,5.59
2023-03-06T12:26:32.145Z,5.58
2023-03-06T12:29:08.106Z,5.52
2023-03-06T12:31:40.964Z,5.42
2023-03-06T12:34:15.395Z,5.41
2023-03-06T12:36:49.023Z,5.38
2023-03-06T12:39:19.150Z,5.40
2023-03-06T12:41:51.858Z,5.38
2023-03-06T12:44:26.982Z,5.36
2023-03-06T12:46:56.655Z,5.42
2023-03-06T12:49:32.470Z,5.54
2023-03-06T12:52:03.967Z,5.53
2023-03-06T12:54:35.211Z,5.60
2023-03-06T12:57:04.582Z,5.58
2023-03-06T12:59:42.495Z,5.64
2023-03-06T13:02:26.582Z,5.60
2023-03-06T13:05:01.538Z,5.71
2023-03-06T13:07:37.178Z,5.69
2023-03-06T13:10:08.870Z,5.62
2023-03-06T13:12:40.419Z,5.71
2023-03-06T13:15:29.450Z,5.71
2023-03-06T13:17:58.705Z,5.80
2023-03-06T13:20:35.310Z,5.78
2023-03-06T13:23:19.517Z,5.82
2023-03-06T13:25:51.106Z,5.88
2023-03-06T13:28:24.122Z,5.92
2023-03-06T13:30:53.704Z,5.92
2023-03-06T13:33:41.584Z,5.98
2023-03-06T13:36:24.654Z,5.89
2023-03-06T13:39:00.895Z,6.01
2023-03-06T13:41:43.669Z,6.02
2023-03-06T13:44:30.988Z,6.09
2023-03-06T13:47:00.686Z,6.14
2023-03-06T13:49:29.909Z,6.22
2023-03-06T13:52:08.654Z,6.17
2023-03-06T13:54:39.841Z,5.99
2023-03-06T13:57:17.737Z,6.10
2023-03-06T14:00:08.219Z,6.15
2023-03-06T14:02:41.622Z,6.14
2023-03-06T14:05:12.182Z,6.13
2023-03-06T14:07:41.848Z,5.99
2023-03-06T14:10:15.763Z,6.02
2023-03-06T14:12:55.829Z,6.09
2023-03-06T14:15:25.750Z,5.88
2023-03-06T14:17:56.336Z,5.82
2023-03-06T14:20:27.750Z,5.96
2023-03-06T14:23:10.156Z,5.91
2023-03-06T14:25:39.433Z,5.95
2023-03-06T14:28:20.999Z,5.90
2023-03-06T14:30:50.855Z,5.96
2023-03-06T14:33:27.012Z,5.98
2023-03-06T14:35:56.665Z,5.92
2023-03-06T14:38:26.380Z,5.97
2023-03-06T14:40:55.594Z,5.99
2023-03-06T14:43:27.558Z,5.91
2023-03-06T14:45:57.699Z,5.94
2023-03-06T14:48:27.766Z,6.00
2023-03-06T14:50:57.599Z,6.00
2023-03-06T14:53:28.395Z,5.98
2023-03-06T14:55:58.240Z,5.97
2023-03-06T14:58:30.298Z,5.93
2023-03-06T15:01:01.478Z,5.87
2023-03-06T15:03:33.993Z,5.89
2023-03-06T15:06:03.275Z,5.93
2023-03-06T15:08:33.426Z,5.84
2023-03-06T15:11:03.306Z,5.85
2023-03-06T15:13:34.594Z,5.81
2023-03-06T15:16:05.512Z,5.77
2023-03-06T15:18:35.834Z,5.75
2023-03-06T15:21:09.306Z,5.74
2023-03-06T15:23:39.826Z,5.67
2023-03-06T15:26:26.993Z,5.65
2023-03-06T15:29:16.848Z,5.61
2023-03-06T15:31:46.316Z,5.52
2023-03-06T15:34:24.998Z,5.51
2023-03-06T15:36:55.633Z,5.50
2023-03-06T15:39:32.188Z,5.46
2023-03-06T15:42:01.721Z,5.42
2023-03-06T15:44:33.510Z,5.39
2023-03-06T15:47:08.632Z,5.34
2023-03-06T15:49:39.598Z,5.30
2023-03-06T15:52:08.933Z,5.10
2023-03-06T15:54:38.644Z,5.15
2023-03-06T15:57:08.734Z,5.15
2023-03-06T15:59:40.697Z,5.10
2023-03-06T16:02:13.503Z,5.09
2023-03-06T16:04:43.134Z,5.08
2023-03-06T16:07:12.564Z,5.04
2023-03-06T16:09:42.624Z,4.99
2023-03-06T16:12:14.648Z,4.99
2023-03-06T16:14:45.695Z,4.95
2023-03-06T16:17:15.080Z,4.98
2023-03-06T16:19:44.949Z,4.95
2023-03-06T16:22:14.578Z,4.95
2023-03-06T16:24:44.104Z,4.92
2023-03-06T16:27:17.053Z,4.93
2023-03-06T16:29:48.251Z,4.92
2023-03-06T16:32:17.547Z,4.89
2023-03-06T16:34:47.297Z,4.86
2023-03-06T16:37:16.593Z,4.86
2023-03-06T16:39:46.194Z,4.84
2023-03-06T16:42:17.142Z,4.78
2023-03-06T16:44:48.177Z,4.80
2023-03-06T16:47:17.436Z,4.79
2023-03-06T16:49:47.125Z,4.70
2023-03-06T16:52:16.426Z,4.63
2023-03-06T16:54:45.982Z,4.49
2023-03-06T16:57:15.592Z,4.51
2023-03-06T16:59:45.242Z,4.55
2023-03-06T17:02:15.985Z,4.58
2023-03-06T17:04:45.682Z,4.54
2023-03-06T17:07:14.861Z,4.43
2023-03-06T17:09:44.613Z,4.40
2023-03-06T17:12:13.835Z,4.33
2023-03-06T17:14:43.424Z,4.24
2023-03-06T17:17:12.627Z,4.12
2023-03-06T17:19:43.626Z,4.12
2023-03-06T17:22:12.833Z,4.06
2023-03-06T17:24:42.552Z,4.05
2023-03-06T17:27:11.797Z,4.01
2023-03-06T17:29:41.394Z,3.96
2023-03-06T17:32:10.672Z,3.93
2023-03-06T17:34:40.257Z,3.85
2023-03-06T17:37:10.911Z,3.75
2023-03-06T17:39:40.699Z,3.76
2023-03-06T17:42:10.073Z,3.72
2023-03-06T17:44:39.699Z,3.71
2023-03-06T17:47:08.876Z,3.64
2023-03-06T17:49:38.557Z,3.42
2023-03-06T17:52:08.140Z,3.29
2023-03-06T17:54:39.264Z,3.51
2023-03-06T17:57:08.503Z,3.58
2023-03-06T17:59:38.076Z,3.59
2023-03-06T18:02:07.563Z,3.55
2023-03-06T18:04:37.189Z,3.56
2023-03-06T18:07:06.608Z,3.56
2023-03-06T18:09:36.189Z,3.50
2023-03-06T18:12:07.152Z,3.52
2023-03-06T18:14:37.153Z,3.55
2023-03-06T18:17:06.412Z,3.49
2023-03-06T18:19:35.885Z,3.48
2023-03-06T18:22:05.079Z,3.43
2023-03-06T18:24:34.734Z,3.43
2023-03-06T18:27:04.106Z,3.46
2023-03-06T18:29:35.173Z,3.44
2023-03-06T18:32:04.535Z,3.40
2023-03-06T18:34:34.242Z,3.34
2023-03-06T18:37:03.507Z,3.27
2023-03-06T18:39:33.543Z,3.25
2023-03-06T18:42:03.256Z,3.29
2023-03-06T18:44:32.895Z,3.27
2023-03-06T18:47:03.571Z,3.17
2023-03-06T18:49:33.139Z,3.13
2023-03-06T18:52:02.400Z,3.09
2023-03-06T18:54:31.981Z,3.08
2023-03-06T18:57:01.170Z,3.12
2023-03-06T18:59:30.731Z,3.10
2023-03-06T19:02:00.012Z,3.08
2023-03-06T19:04:31.056Z,3.07
2023-03-06T19:07:00.396Z,2.94
2023-03-06T19:09:30.010Z,2.97
2023-03-06T19:11:59.308Z,2.98
2023-03-06T19:14:29.045Z,2.90
2023-03-06T19:16:58.374Z,2.89
2023-03-06T19:19:29.417Z,2.91
2023-03-06T19:22:00.174Z,2.80
2023-03-06T19:24:29.704Z,2.73
2023-03-06T19:26:58.963Z,2.77
2023-03-06T19:29:28.619Z,2.80
2023-03-06T19:31:58.977Z,2.80
2023-03-06T19:34:28.583Z,2.72
2023-03-06T19:36:57.837Z,2.65
2023-03-06T19:39:28.839Z,2.66
2023-03-06T19:41:58.093Z,2.68
2023-03-06T19:44:27.733Z,2.66
2023-03-06T19:46:56.945Z,2.65
2023-03-06T19:49:26.515Z,2.63
2023-03-06T19:51:55.831Z,2.57
2023-03-06T19:54:25.685Z,2.50
2023-03-06T19:56:56.378Z,2.44
2023-03-06T19:59:25.999Z,2.40
2023-03-06T20:01:55.251Z,2.34
2023-03-06T20:04:25.172Z,2.30
2023-03-06T20:06:56.467Z,2.27
2023-03-06T20:09:26.047Z,2.31
2023-03-06T20:11:56.809Z,2.24
2023-03-06T20:14:26.328Z,2.18
2023-03-06T20:16:55.628Z,2.13
2023-03-06T20:19:25.256Z,2.11
2023-03-06T20:21:56.038Z,2.08
2023-03-06T20:24:26.163Z,2.04
2023-03-06T20:26:57.883Z,2.01
2023-03-06T20:29:28.481Z,1.97
2023-03-06T20:31:58.247Z,1.91
2023-03-06T20:34:28.049Z,1.90
2023-03-06T20:36:58.027Z,1.85
2023-03-06T20:39:28.658Z,1.84
2023-03-06T20:42:00.249Z,1.81
2023-03-06T20:44:29.935Z,1.80
2023-03-06T20:46:59.187Z,1.80
2023-03-06T20:49:28.792Z,1.77
2023-03-06T20:51:58.037Z,1.75
2023-03-06T20:54:27.575Z,1.73
2023-03-06T20:56:56.769Z,1.70
2023-03-06T20:59:27.770Z,1.70
2023-03-06T21:01:57.014Z,1.65
2023-03-06T21:04:26.648Z,1.62
2023-03-06T21:06:55.978Z,1.57
2023-03-06T21:09:27.057Z,1.55
2023-03-06T21:11:56.489Z,1.55
2023-03-06T21:14:27.531Z,1.50
2023-03-06T21:16:56.706Z,1.50
2023-03-06T21:19:26.737Z,1.45
2023-03-06T21:21:56.062Z,1.44
2023-03-06T21:24:25.623Z,1.40
2023-03-06T21:26:54.823Z,1.39
2023-03-06T21:29:24.425Z,1.35
2023-03-06T21:31:55.168Z,1.31
2023-03-06T21:34:24.829Z,1.29
2023-03-06T21:36:54.067Z,1.26
2023-03-06T21:39:23.583Z,1.22
2023-03-06T21:41:52.826Z,1.22
2023-03-06T21:44:22.585Z,1.19
2023-03-06T21:46:51.755Z,1.19
2023-03-06T21:49:26.173Z,1.16
2023-03-06T21:51:55.463Z,1.17
2023-03-06T21:54:26.939Z,1.13
2023-03-06T21:56:56.239Z,1.13
2023-03-06T21:59:25.853Z,1.09
2023-03-06T22:01:55.109Z,1.07
2023-03-06T22:04:26.182Z,1.05
2023-03-06T22:06:55.405Z,1.01
2023-03-06T22:09:24.947Z,0.99
2023-03-06T22:11:54.205Z,0.94
2023-03-06T22:14:23.722Z,0.91
2023-03-06T22:16:52.936Z,0.90
2023-03-06T22:19:22.492Z,0.86
2023-03-06T22:21:53.119Z,0.85
2023-03-06T22:24:22.790Z,0.81
2023-03-06T22:26:52.053Z,0.79
2023-03-06T22:29:21.618Z,0.75
2023-03-06T22:31:52.118Z,0.72
2023-03-06T22:34:21.748Z,0.67
2023-03-06T22:36:52.396Z,0.64
2023-03-06T22:39:21.982Z,0.62
2023-03-06T22:41:51.344Z,0.58
2023-03-06T22:44:20.953Z,0.58
2023-03-06T22:46:51.822Z,0.53
2023-03-06T22:49:21.305Z,0.52
2023-03-06T22:51:50.513Z,0.49
2023-03-06T22:54:21.553Z,0.45
2023-03-06T22:56:50.756Z,0.45
2023-03-06T22:59:20.278Z,0.46
2023-03-06T23:01:49.435Z,0.44
2023-03-06T23:04:19.073Z,0.41
2023-03-06T23:06:48.313Z,0.33
2023-03-06T23:09:20.721Z,0.32
2023-03-06T23:11:51.364Z,0.29
2023-03-06T23:14:21.003Z,0.29
2023-03-06T23:16:50.194Z,0.18
2023-03-06T23:19:19.758Z,0.21
2023-03-06T23:21:49.850Z,0.19
2023-03-06T23:24:19.348Z,0.20
2023-03-06T23:26:48.639Z,0.17
2023-03-06T23:29:19.722Z,0.19
2023-03-06T23:31:48.937Z,0.16
2023-03-06T23:34:18.467Z,0.15
2023-03-06T23:36:47.690Z,0.15
2023-03-06T23:39:17.398Z,0.16
2023-03-06T23:41:46.623Z,0.16
2023-03-06T23:44:16.169Z,0.16
2023-03-06T23:46:46.807Z,0.18
2023-03-06T23:49:16.728Z,0.19
2023-03-06T23:51:46.002Z,0.18
2023-03-06T23:54:15.580Z,0.18
2023-03-06T23:56:44.826Z,0.16
2023-03-06T23:59:14.366Z,0.14
